LFBI

Poitiers-Biard Airport

Airport
ICAO code
LFBI
IATA Code
PIS
Summary
ICAO Region
EUR
ICAO Territory
Location

, Poitou-Charentes

Serving
Poitiers
Elevation
423 ft
Coordinates
46° 35' 16" N , 0° 18' 24" E
Metar
Observation
LFBI 280430Z AUTO 23004KT 4500 BR NCD 07/06 Q1014 TEMPO 2500 BR BKN030CB
Station
Poitiers
Date/Time
2022-11-28 04:30:00
Wind direction
230°
Wind speed
04 kts
Lowest cloud amount
broken clouds
Temperature
7°C
Dew point
6°C
Humidity
93%
QNH
1014 hPa
Weather condition
n/a

Runways

Designator Length Width Surface Rops
3/21 2350 45 ASP Yes/Yes

Airport map

Aerial View

SKYbrary Partners:

Safety knowledge contributed by: